createdAt,value
2022-08-05T00:00:02.448Z,67.237
2022-08-05T00:07:01.748Z,67.237
2022-08-05T00:14:02.220Z,68.458
2022-08-05T00:21:02.044Z,68.53
2022-08-05T00:28:02.270Z,68.53
2022-08-05T00:35:06.539Z,68.832
2022-08-05T00:42:01.979Z,68.832
2022-08-05T00:49:01.571Z,70.132
2022-08-05T00:56:02.330Z,70.132
2022-08-05T01:00:02.033Z,70.518
2022-08-05T01:07:01.907Z,70.518
2022-08-05T01:14:01.716Z,70.586
2022-08-05T01:21:01.555Z,70.586
2022-08-05T01:28:01.920Z,71.189
2022-08-05T01:35:01.598Z,71.189
2022-08-05T01:42:01.663Z,71.98
2022-08-05T01:49:02.283Z,71.98
2022-08-05T01:56:04.470Z,72.314
2022-08-05T02:00:02.263Z,72.314
2022-08-05T02:07:03.505Z,72.717
2022-08-05T02:14:02.087Z,72.717
2022-08-05T02:21:02.153Z,74.748
2022-08-05T02:28:01.599Z,74.748
2022-08-05T02:35:02.153Z,77.795
2022-08-05T02:42:01.653Z,78.53
2022-08-05T02:49:02.359Z,78.53
2022-08-05T02:56:02.266Z,78.939
2022-08-05T03:00:02.100Z,78.939
2022-08-05T03:07:02.179Z,78.939
2022-08-05T03:14:03.306Z,80.475
2022-08-05T03:21:02.360Z,80.287
2022-08-05T03:28:01.686Z,80.287
2022-08-05T03:35:01.942Z,79.914
2022-08-05T03:42:02.159Z,79.914
2022-08-05T03:49:02.291Z,81.049
2022-08-05T03:56:12.053Z,81.049
2022-08-05T04:00:01.862Z,81.582
2022-08-05T04:07:02.000Z,81.582
2022-08-05T04:14:01.400Z,81.799
2022-08-05T04:21:01.780Z,81.799
2022-08-05T04:28:05.726Z,81.537
2022-08-05T04:35:02.013Z,81.537
2022-08-05T04:42:02.215Z,81.605
2022-08-05T04:49:02.290Z,81.605
2022-08-05T04:56:33.627Z,80.856
2022-08-05T05:00:01.719Z,80.856
2022-08-05T05:07:02.194Z,80.892
2022-08-05T05:14:02.048Z,80.892
2022-08-05T05:21:01.902Z,80.777
2022-08-05T05:28:02.244Z,80.777
2022-08-05T05:35:02.002Z,81.097
2022-08-05T05:42:01.400Z,80.639
2022-08-05T05:49:06.411Z,80.639
2022-08-05T05:56:03.263Z,81.461
2022-08-05T06:00:01.993Z,81.461
2022-08-05T06:07:01.715Z,81.461
2022-08-05T06:14:01.641Z,82.354
2022-08-05T06:21:01.983Z,81.456
2022-08-05T06:28:10.719Z,81.456
2022-08-05T06:35:06.117Z,81.4
2022-08-05T06:42:01.485Z,81.4
2022-08-05T06:49:01.811Z,81.1
2022-08-05T06:56:01.925Z,81.1
2022-08-05T07:00:02.627Z,80.848
2022-08-05T07:07:01.701Z,80.848
2022-08-05T07:14:02.347Z,80.478
2022-08-05T07:21:05.578Z,80.478
2022-08-05T07:28:05.876Z,79.771
2022-08-05T07:36:01.939Z,79.771
2022-08-05T07:42:13.277Z,79.262
2022-08-05T07:49:05.944Z,79.262
2022-08-05T07:56:05.347Z,79.14
2022-08-05T08:00:02.428Z,79.14
2022-08-05T08:07:01.821Z,78.372
2022-08-05T08:14:02.125Z,78.372
2022-08-05T08:21:04.032Z,77.902
2022-08-05T08:28:01.750Z,77.902
2022-08-05T08:35:02.774Z,77.825
2022-08-05T08:42:02.155Z,77.549
2022-08-05T08:49:17.359Z,77.549
2022-08-05T08:56:04.801Z,77.213
2022-08-05T09:00:02.135Z,77.213
2022-08-05T09:07:02.273Z,77.213
2022-08-05T09:14:53.859Z,76.606
2022-08-05T09:21:01.370Z,76.388
2022-08-05T09:28:05.540Z,76.388
2022-08-05T09:35:02.530Z,76.101
2022-08-05T09:42:01.569Z,76.101
2022-08-05T09:49:07.990Z,76.578
2022-08-05T09:56:03.620Z,76.578
2022-08-05T10:00:07.318Z,75.785
2022-08-05T10:07:20.187Z,75.785
2022-08-05T10:14:01.638Z,76.252
2022-08-05T10:21:08.482Z,76.252
2022-08-05T10:28:13.681Z,74.899
2022-08-05T10:35:01.799Z,74.899
2022-08-05T10:42:01.633Z,73.899
2022-08-05T10:49:09.800Z,73.899
2022-08-05T10:56:04.983Z,71.362
2022-08-05T11:00:13.365Z,71.362
2022-08-05T11:07:01.717Z,69.514
2022-08-05T11:14:02.311Z,69.514
2022-08-05T11:21:01.486Z,68.946
2022-08-05T11:28:02.275Z,68.946
2022-08-05T11:35:02.306Z,68.224
2022-08-05T11:42:04.562Z,68.465
2022-08-05T11:49:02.045Z,68.465
2022-08-05T11:56:01.986Z,67.274
2022-08-05T12:00:02.073Z,67.274
2022-08-05T12:07:02.046Z,67.274
2022-08-05T12:14:04.441Z,67.328
2022-08-05T12:21:02.182Z,66
2022-08-05T12:28:02.371Z,66
2022-08-05T12:35:04.105Z,66.25
2022-08-05T12:42:01.641Z,66.25
2022-08-05T12:49:05.779Z,65.355
2022-08-05T12:56:02.232Z,65.355
2022-08-05T13:01:56.878Z,65.17
2022-08-05T13:07:01.840Z,65.17
2022-08-05T13:14:05.398Z,64.297
2022-08-05T13:21:02.000Z,64.297
2022-08-05T13:28:02.137Z,62.443
2022-08-05T13:35:02.040Z,62.443
2022-08-05T13:42:02.218Z,58.604
2022-08-05T13:49:02.557Z,58.604
2022-08-05T13:56:02.170Z,60.624
2022-08-05T14:00:02.238Z,60.624
2022-08-05T14:07:26.236Z,58.017
2022-08-05T14:14:01.592Z,58.017
2022-08-05T14:22:07.704Z,59.086
2022-08-05T14:28:01.757Z,59.086
2022-08-05T14:35:02.480Z,59.101
2022-08-05T14:42:21.192Z,59.101
2022-08-05T14:49:06.569Z,57.995
2022-08-05T14:56:02.095Z,59.074
2022-08-05T15:00:01.725Z,59.074
2022-08-05T15:07:01.580Z,59.074
2022-08-05T15:14:01.392Z,58.747
2022-08-05T15:21:07.213Z,57.571
2022-08-05T15:28:01.797Z,57.571
2022-08-05T15:35:09.755Z,54.505
2022-08-05T15:42:01.795Z,54.505
2022-08-05T15:49:10.080Z,52.112
2022-08-05T15:56:04.874Z,52.112
2022-08-05T16:00:02.361Z,47.355
2022-08-05T16:07:02.098Z,47.355
2022-08-05T16:14:01.921Z,48.677
2022-08-05T16:21:04.647Z,48.677
2022-08-05T16:28:05.635Z,49.426
2022-08-05T16:35:02.187Z,49.426
2022-08-05T16:42:15.105Z,47.098
2022-08-05T16:49:02.895Z,47.098
2022-08-05T16:56:01.770Z,47.353
2022-08-05T17:00:08.383Z,47.353
2022-08-05T17:07:03.184Z,46.504
2022-08-05T17:14:06.259Z,46.504
2022-08-05T17:21:02.047Z,43.414
2022-08-05T17:28:02.136Z,43.414
2022-08-05T17:35:02.286Z,44.099
2022-08-05T17:42:19.103Z,44.099
2022-08-05T17:49:02.070Z,44.833
2022-08-05T17:56:01.565Z,44.413
2022-08-05T18:00:03.323Z,44.413
2022-08-05T18:07:01.452Z,44.413
2022-08-05T18:14:03.547Z,43.391
2022-08-05T18:21:01.919Z,42.92
2022-08-05T18:28:05.080Z,42.92
2022-08-05T18:35:02.360Z,44.633
2022-08-05T18:42:06.082Z,44.633
2022-08-05T18:49:01.783Z,46.551
2022-08-05T18:56:01.844Z,46.551
2022-08-05T19:00:07.553Z,45.443
2022-08-05T19:07:02.201Z,45.443
2022-08-05T19:14:05.207Z,46.237
2022-08-05T19:21:01.894Z,46.237
2022-08-05T19:28:02.107Z,47.591
2022-08-05T19:35:06.566Z,47.591
2022-08-05T19:42:07.890Z,47.866
2022-08-05T19:49:03.159Z,47.866
2022-08-05T19:56:14.308Z,48.285
2022-08-05T20:00:04.505Z,48.285
2022-08-05T20:07:01.919Z,48.925
2022-08-05T20:14:12.427Z,48.925
2022-08-05T20:21:02.031Z,50.156
2022-08-05T20:28:01.882Z,50.156
2022-08-05T20:35:02.293Z,51.333
2022-08-05T20:42:01.672Z,51.333
2022-08-05T20:49:02.543Z,52.213
2022-08-05T20:56:08.350Z,53.045
2022-08-05T21:00:20.890Z,53.045
2022-08-05T21:07:01.374Z,53.045
2022-08-05T21:14:01.563Z,53.76
2022-08-05T21:21:01.613Z,53.406
2022-08-05T21:28:01.685Z,53.406
2022-08-05T21:35:17.502Z,52.697
2022-08-05T21:42:02.505Z,52.697
2022-08-05T21:49:01.448Z,52.679
2022-08-05T21:56:05.909Z,52.679
2022-08-05T22:00:05.051Z,53.428
2022-08-05T22:07:01.545Z,53.428
2022-08-05T22:14:32.408Z,53.704
2022-08-05T22:21:04.231Z,53.704
2022-08-05T22:28:08.771Z,53.659
2022-08-05T22:35:02.282Z,53.659
2022-08-05T22:42:10.115Z,54.075
2022-08-05T22:49:01.828Z,54.075
2022-08-05T22:56:01.946Z,54.019
2022-08-05T23:00:02.765Z,54.019
2022-08-05T23:07:02.318Z,54.425
2022-08-05T23:14:01.790Z,54.425
2022-08-05T23:21:01.447Z,54.647
2022-08-05T23:28:02.213Z,54.647
2022-08-05T23:35:01.625Z,55.222
2022-08-05T23:42:01.799Z,55.222
2022-08-05T23:49:03.755Z,55.518
2022-08-05T23:56:02.060Z,55.837
